Time;durP1;ratioP1;P1;durP2;ratioP2;P2;SDS_P1;SDS_P2;PMS_P1;PMS_P2;Temp;Humidity;BMP_temperature;BMP_pressure;BME280_temperature;BME280_humidity;BME280_pressure;Samples;Min_cycle;Max_cycle;Signal;HPM_P1;HPM_P2
2021/03/26 00:00:53;;;;;;;99.42;60.08;;;;;;;9.36;74.39;100626.45;2850334;83;21165;-65
2021/03/26 00:04:56;;;;;;;92.10;58.13;;;;;;;9.32;75.13;100624.13;2850375;83;21173;-65
2021/03/26 00:08:59;;;;;;;75.78;45.90;;;;;;;9.42;75.02;100623.81;2867347;83;21137;-65
2021/03/26 00:13:05;;;;;;;92.42;54.20;;;;;;;9.50;74.85;100626.79;2819893;83;21173;-65
2021/03/26 00:17:08;;;;;;;87.00;54.77;;;;;;;9.49;74.91;100607.83;2858895;83;21148;-66
2021/03/26 00:21:14;;;;;;;92.82;57.10;;;;;;;9.49;74.91;100607.83;2790333;85;21632;-65
2021/03/26 00:25:18;;;;;;;77.65;54.48;;;;;;;9.68;75.03;100629.91;2810831;84;21138;-65
2021/03/26 00:29:22;;;;;;;71.45;46.83;;;;;;;9.75;74.79;100626.33;2811092;84;21149;-65
2021/03/26 00:33:25;;;;;;;65.80;45.75;;;;;;;9.81;75.04;100630.35;2810629;84;21145;-66
2021/03/26 00:37:28;;;;;;;76.15;46.10;;;;;;;9.80;74.75;100625.50;2810554;84;21956;-65
2021/03/26 00:41:32;;;;;;;76.12;45.67;;;;;;;9.84;74.42;100630.98;2828697;83;21458;-66
2021/03/26 00:45:37;;;;;;;69.82;43.42;;;;;;;9.88;74.60;100631.59;2817988;84;21636;-63
2021/03/26 00:49:40;;;;;;;69.90;39.15;;;;;;;9.97;74.38;100628.27;2852825;83;21190;-64
2021/03/26 00:53:45;;;;;;;67.70;43.90;;;;;;;9.93;74.65;100625.47;2852868;83;21159;-63
2021/03/26 00:57:48;;;;;;;71.15;46.15;;;;;;;10.06;75.18;100618.77;2852853;83;21159;-63
2021/03/26 01:01:51;;;;;;;59.50;44.93;;;;;;;10.10;74.64;100624.20;2852633;83;21158;-63
2021/03/26 01:05:59;;;;;;;58.25;40.23;;;;;;;10.02;74.84;100623.91;2852030;83;21189;-64
2021/03/26 01:10:09;;;;;;;67.65;44.08;;;;;;;10.05;75.55;100627.70;2849463;83;21611;-64
2021/03/26 01:14:17;;;;;;;71.42;43.87;;;;;;;10.13;75.58;100627.13;2849463;83;21170;-64
2021/03/26 01:18:26;;;;;;;60.30;40.48;;;;;;;10.22;75.89;100630.41;2849656;83;21145;-64
2021/03/26 01:22:29;;;;;;;65.87;39.67;;;;;;;10.24;75.19;100622.34;2849345;83;21563;-64
2021/03/26 01:26:32;;;;;;;67.42;42.48;;;;;;;9.99;75.54;100624.14;2849698;83;21169;-64
2021/03/26 01:30:36;;;;;;;62.25;41.18;;;;;;;9.99;76.49;100640.95;2849346;83;21153;-64
2021/03/26 01:34:41;;;;;;;64.67;43.10;;;;;;;10.12;76.46;100639.56;2849744;83;21193;-64
2021/03/26 01:38:45;;;;;;;60.52;41.60;;;;;;;10.20;75.77;100632.34;2849099;83;21213;-64
2021/03/26 01:42:49;;;;;;;71.65;41.20;;;;;;;10.26;75.78;100636.36;2849119;83;21177;-64
2021/03/26 01:46:52;;;;;;;55.10;40.70;;;;;;;10.37;75.94;100636.38;2848976;83;21173;-65
2021/03/26 01:50:57;;;;;;;59.20;40.65;;;;;;;10.51;75.97;100623.89;2849186;83;21564;-65
2021/03/26 01:55:00;;;;;;;60.52;36.60;;;;;;;10.50;75.54;100621.70;2848837;83;21185;-64
2021/03/26 01:59:05;;;;;;;58.70;41.58;;;;;;;10.18;76.53;100625.44;2849066;83;21145;-64
2021/03/26 02:03:31;;;;;;;70.47;43.15;;;;;;;10.08;77.39;100616.83;2849131;83;21169;-65
2021/03/26 02:07:35;;;;;;;71.62;44.40;;;;;;;9.95;77.44;100616.91;2836672;83;21169;-64
2021/03/26 02:11:46;;;;;;;76.02;46.92;;;;;;;9.70;78.63;100621.84;2822554;83;21153;-64
2021/03/26 02:15:50;;;;;;;71.70;48.92;;;;;;;9.41;79.67;100630.09;2822608;83;21165;-64
2021/03/26 02:20:19;;;;;;;64.37;42.60;;;;;;;9.34;80.58;100642.11;2822742;83;21173;-64
2021/03/26 02:24:25;;;;;;;65.42;44.08;;;;;;;9.44;81.05;100640.52;2868727;83;21200;-64
2021/03/26 02:28:30;;;;;;;61.42;43.25;;;;;;;9.58;80.88;100645.66;2868721;82;22293;-64
2021/03/26 02:32:38;;;;;;;74.00;41.92;;;;;;;9.77;80.97;100643.50;2869055;82;21168;-65
2021/03/26 02:36:47;;;;;;;63.95;41.85;;;;;;;9.92;80.06;100642.84;2868481;83;21650;-65
2021/03/26 02:41:10;;;;;;;65.45;43.08;;;;;;;9.93;79.38;100641.42;2868882;83;21183;-65
2021/03/26 02:45:31;;;;;;;55.83;38.35;;;;;;;9.93;79.81;100645.87;2868443;82;21153;-65
2021/03/26 02:49:44;;;;;;;59.80;36.15;;;;;;;9.99;80.11;100646.27;2868624;83;21192;-64
2021/03/26 02:53:58;;;;;;;62.38;36.63;;;;;;;9.98;79.49;100657.00;2869045;82;21180;-65
2021/03/26 02:58:26;;;;;;;71.95;45.03;;;;;;;9.66;80.33;100670.84;2868752;82;21556;-65
2021/03/26 03:02:31;;;;;;;63.23;35.75;;;;;;;9.60;81.16;100669.93;2866109;83;21166;-65
2021/03/26 03:07:00;;;;;;;55.12;39.15;;;;;;;9.63;81.06;100665.72;2859389;83;21186;-65
2021/03/26 03:11:11;;;;;;;99.87;60.70;;;;;;;9.69;80.55;100667.46;2859159;83;21170;-65
2021/03/26 03:15:32;;;;;;;56.60;35.45;;;;;;;9.75;80.48;100662.19;2859182;83;22203;-65
2021/03/26 03:19:59;;;;;;;55.75;40.83;;;;;;;9.83;80.62;100660.31;2858948;83;21738;-64
2021/03/26 03:24:25;;;;;;;66.00;45.67;;;;;;;9.80;79.89;100660.04;2855238;83;21174;-65
2021/03/26 03:28:33;;;;;;;57.35;36.73;;;;;;;9.74;80.25;100660.99;2857280;83;21199;-64
2021/03/26 03:32:43;;;;;;;64.70;40.17;;;;;;;9.78;80.84;100657.98;2856890;83;21569;-65
2021/03/26 03:37:01;;;;;;;67.27;45.40;;;;;;;9.76;80.86;100652.42;2857240;83;21636;-65
2021/03/26 03:41:11;;;;;;;59.42;39.45;;;;;;;9.78;80.65;100646.02;2857039;83;21187;-65
2021/03/26 03:45:26;;;;;;;63.38;40.85;;;;;;;9.69;80.53;100638.73;2856147;83;21167;-65
2021/03/26 03:50:06;;;;;;;51.58;37.90;;;;;;;9.54;81.43;100633.56;2857321;83;21135;-65
2021/03/26 03:54:20;;;;;;;70.10;43.73;;;;;;;9.37;81.65;100637.44;2856957;83;21178;-65
2021/03/26 03:58:34;;;;;;;59.50;38.02;;;;;;;9.37;82.25;100627.28;2857171;83;21186;-65
2021/03/26 04:03:08;;;;;;;58.95;38.75;;;;;;;9.32;81.99;100628.10;2851666;83;21158;-66
2021/03/26 04:07:20;;;;;;;59.27;40.98;;;;;;;9.23;82.26;100628.27;2849208;83;21143;-65
2021/03/26 04:11:27;;;;;;;57.53;39.38;;;;;;;9.31;82.93;100631.22;2844208;83;21170;-66
2021/03/26 04:15:36;;;;;;;54.08;39.42;;;;;;;9.37;82.14;100625.96;2856963;83;21154;-65
2021/03/26 04:19:46;;;;;;;60.83;37.95;;;;;;;9.26;82.13;100632.90;2856645;83;21162;-65
2021/03/26 04:24:06;;;;;;;71.47;45.80;;;;;;;9.15;82.43;100630.14;2856567;83;21209;-64
2021/03/26 04:28:29;;;;;;;62.40;42.53;;;;;;;9.00;83.01;100634.23;2856063;82;21190;-66
2021/03/26 04:32:32;;;;;;;62.60;44.48;;;;;;;8.85;83.49;100637.48;2844295;83;21199;-66
2021/03/26 04:36:44;;;;;;;69.03;48.42;;;;;;;8.82;83.63;100642.14;2789037;84;21143;-66
2021/03/26 04:40:54;;;;;;;66.17;46.55;;;;;;;8.69;83.61;100637.70;2779094;84;21179;-65
2021/03/26 04:45:08;;;;;;;70.97;48.28;;;;;;;8.77;83.85;100641.16;2796404;83;21179;-65
2021/03/26 04:49:36;;;;;;;58.83;39.50;;;;;;;8.71;83.17;100622.53;2854033;83;21170;-66
2021/03/26 04:54:00;;;;;;;71.65;44.30;;;;;;;8.65;83.47;100628.72;2856823;83;21134;-66
2021/03/26 04:58:17;;;;;;;64.60;42.75;;;;;;;8.81;83.56;100632.02;2833029;83;21547;-66
2021/03/26 05:02:22;;;;;;;58.98;40.52;;;;;;;9.00;83.03;100630.25;2854101;83;21441;-67
2021/03/26 05:06:30;;;;;;;59.33;39.53;;;;;;;9.05;81.88;100633.09;2857082;83;21206;-67
2021/03/26 05:10:35;;;;;;;59.93;44.53;;;;;;;8.97;81.98;100638.44;2855999;82;21123;-68
2021/03/26 05:14:43;;;;;;;60.80;36.73;;;;;;;9.08;82.19;100639.50;2862824;82;21414;-66
2021/03/26 05:19:08;;;;;;;55.70;36.63;;;;;;;9.02;80.75;100640.77;2856742;83;21139;-67
2021/03/26 05:23:25;;;;;;;65.25;42.13;;;;;;;8.93;80.81;100642.27;2857323;83;21170;-65
2021/03/26 05:27:29;;;;;;;61.98;41.53;;;;;;;8.70;81.57;100644.70;2858921;83;21173;-68
2021/03/26 05:32:28;;;;;;;58.92;40.28;;;;;;;8.63;82.04;100645.22;2859460;83;21150;-66
2021/03/26 05:36:36;;;;;;;56.35;39.58;;;;;;;8.48;82.45;100641.78;2859297;83;21134;-67
2021/03/26 05:40:51;;;;;;;60.80;41.10;;;;;;;8.31;83.12;100645.08;2858970;83;21158;-63
2021/03/26 05:45:11;;;;;;;59.15;43.63;;;;;;;8.31;83.58;100646.41;2859027;83;21202;-66
2021/03/26 05:50:10;;;;;;;73.42;47.38;;;;;;;8.38;83.97;100649.01;2859259;83;21198;-67
2021/03/26 05:54:51;;;;;;;78.00;45.43;;;;;;;8.47;83.94;100649.36;2859074;83;21166;-66
2021/03/26 05:59:22;;;;;;;68.00;44.05;;;;;;;8.57;83.75;100649.12;2858961;83;21170;-67
2021/03/26 06:04:08;;;;;;;61.25;41.95;;;;;;;8.85;84.50;100648.09;2859141;83;21142;-66
2021/03/26 06:08:39;;;;;;;67.55;43.30;;;;;;;9.28;84.77;100644.25;2858954;83;21170;-68
2021/03/26 06:13:02;;;;;;;59.48;42.13;;;;;;;9.83;84.76;100646.56;2858930;83;21126;-67
2021/03/26 06:17:43;;;;;;;59.45;42.48;;;;;;;10.33;82.71;100651.38;2858647;83;21135;-67
2021/03/26 06:22:08;;;;;;;55.98;41.37;;;;;;;10.68;80.55;100650.05;2859077;82;21183;-67
2021/03/26 06:26:28;;;;;;;70.08;46.63;;;;;;;11.07;78.13;100649.73;2857247;83;21171;-67
2021/03/26 06:30:37;;;;;;;67.87;43.95;;;;;;;11.10;76.77;100651.31;2857181;83;21154;-67
2021/03/26 06:35:21;;;;;;;60.00;41.35;;;;;;;11.14;76.73;100650.09;2857021;83;21119;-67
2021/03/26 06:39:56;;;;;;;62.43;43.10;;;;;;;11.24;76.79;100648.42;2857087;83;21190;-67
2021/03/26 06:44:44;;;;;;;76.47;51.30;;;;;;;11.47;76.60;100655.53;2857195;83;21170;-68
2021/03/26 06:48:58;;;;;;;60.05;39.35;;;;;;;11.78;76.82;100651.23;2857159;83;21191;-67
2021/03/26 06:53:15;;;;;;;62.35;41.50;;;;;;;12.34;74.80;100654.72;2857028;83;21742;-68
2021/03/26 06:57:36;;;;;;;77.50;48.13;;;;;;;12.84;75.44;100654.58;2857475;83;21170;-68
2021/03/26 07:02:10;;;;;;;75.87;44.25;;;;;;;13.33;73.64;100665.50;2804907;84;21109;-68
2021/03/26 07:07:01;;;;;;;72.72;49.40;;;;;;;13.58;72.34;100661.19;2804943;84;21161;-68
2021/03/26 07:11:15;;;;;;;58.08;42.50;;;;;;;13.83;71.49;100665.17;2804914;84;21156;-68
2021/03/26 07:15:28;;;;;;;58.23;40.95;;;;;;;14.32;70.86;100662.53;2805122;84;21165;-68
2021/03/26 07:19:51;;;;;;;60.45;38.53;;;;;;;14.55;69.30;100665.77;2804878;84;21570;-68
2021/03/26 07:24:35;;;;;;;64.82;42.85;;;;;;;14.54;69.84;100665.42;2806172;84;22361;-67
2021/03/26 07:34:11;;;;;;;66.40;43.35;;;;;;;14.56;69.30;100665.30;2806755;84;21666;-68
2021/03/26 07:38:53;;;;;;;65.25;41.28;;;;;;;14.78;69.38;100661.97;2807286;84;21169;-69
2021/03/26 07:43:27;;;;;;;59.45;39.03;;;;;;;15.17;68.56;100664.55;2806676;84;21173;-69
2021/03/26 07:48:12;;;;;;;62.15;41.08;;;;;;;15.58;65.81;100668.73;2807010;84;21242;-69
2021/03/26 07:52:50;;;;;;;61.60;42.13;;;;;;;15.91;66.07;100669.97;2806990;84;21179;-68
2021/03/26 07:57:16;;;;;;;53.78;36.05;;;;;;;16.21;64.95;100667.08;2807235;84;21193;-68
2021/03/26 08:02:04;;;;;;;57.48;39.35;;;;;;;16.33;63.83;100667.68;2807248;84;21153;-69
2021/03/26 08:06:48;;;;;;;64.50;39.40;;;;;;;16.26;64.10;100672.81;2797578;84;21118;-68
2021/03/26 08:10:59;;;;;;;62.65;41.85;;;;;;;16.06;63.35;100664.92;2807073;84;21682;-68
2021/03/26 08:15:36;;;;;;;63.95;40.88;;;;;;;16.15;63.58;100663.67;2807454;84;21635;-70
2021/03/26 08:20:07;;;;;;;64.07;39.90;;;;;;;16.25;63.49;100667.11;2807431;84;21137;-68
2021/03/26 08:24:41;;;;;;;65.55;42.03;;;;;;;16.39;62.62;100669.25;2806488;84;21149;-69
2021/03/26 08:29:24;;;;;;;64.05;40.08;;;;;;;16.51;62.48;100665.00;2805502;84;21552;-69
2021/03/26 08:33:58;;;;;;;61.40;38.95;;;;;;;16.56;62.34;100673.42;2790688;84;21189;-68
2021/03/26 08:38:18;;;;;;;67.15;40.38;;;;;;;16.70;62.88;100683.61;2729216;87;21181;-69
2021/03/26 08:42:29;;;;;;;57.45;39.60;;;;;;;16.90;63.72;100675.35;2730314;85;21159;-69
2021/03/26 08:46:40;;;;;;;56.40;38.05;;;;;;;16.92;62.43;100667.11;2730480;85;21135;-68
2021/03/26 08:50:54;;;;;;;51.48;34.70;;;;;;;17.04;62.71;100667.72;2720898;87;21127;-68
2021/03/26 08:55:15;;;;;;;61.35;41.58;;;;;;;17.19;60.19;100670.16;2730472;86;21585;-68
2021/03/26 09:00:06;;;;;;;54.30;33.67;;;;;;;17.28;60.42;100667.84;2730641;86;21171;-69
2021/03/26 09:05:02;;;;;;;54.23;35.35;;;;;;;17.35;58.46;100661.84;2730162;86;22346;-68
2021/03/26 09:09:30;;;;;;;49.93;31.48;;;;;;;17.32;57.85;100664.86;2730314;87;21186;-69
2021/03/26 09:14:16;;;;;;;56.90;33.48;;;;;;;17.43;57.56;100659.17;2730535;87;21652;-69
2021/03/26 09:18:33;;;;;;;52.90;34.70;;;;;;;17.55;56.85;100658.38;2730643;86;21154;-68
2021/03/26 09:23:08;;;;;;;51.33;29.35;;;;;;;17.74;56.15;100669.38;2727775;86;21185;-69
2021/03/26 09:27:38;;;;;;;54.25;33.23;;;;;;;17.76;52.62;100659.30;2815081;84;21178;-69
2021/03/26 09:31:56;;;;;;;51.95;30.35;;;;;;;17.77;53.58;100661.47;2814868;84;21122;-69
2021/03/26 09:36:03;;;;;;;48.30;29.30;;;;;;;17.89;53.55;100660.69;2814416;84;21142;-68
2021/03/26 09:40:34;;;;;;;48.55;29.25;;;;;;;17.95;53.29;100664.05;2796545;84;21142;-69
2021/03/26 09:45:03;;;;;;;63.78;34.92;;;;;;;18.05;52.13;100664.77;2823239;84;21126;-69
2021/03/26 09:49:37;;;;;;;67.85;39.18;;;;;;;18.26;50.69;100660.74;3067683;77;21682;-68
2021/03/26 09:53:43;;;;;;;62.83;39.15;;;;;;;18.27;52.47;100667.81;3022047;78;21570;-68
2021/03/26 09:58:10;;;;;;;;;;;;;;;18.31;53.23;100668.33;3024755;78;21073;-67
2021/03/26 10:02:40;;;;;;;70.40;45.10;;;;;;;18.46;52.67;100659.06;3015959;78;20459;-68
2021/03/26 10:07:18;;;;;;;47.13;30.70;;;;;;;18.55;51.47;100663.45;2968242;80;21168;-68
2021/03/26 10:11:26;;;;;;;55.52;33.67;;;;;;;18.54;50.90;100661.77;2964012;80;21598;-68
2021/03/26 10:15:36;;;;;;;58.25;33.85;;;;;;;18.71;51.49;100655.86;2968691;80;21116;-69
2021/03/26 10:19:44;;;;;;;58.73;36.95;;;;;;;18.80;51.55;100657.54;2968748;79;21854;-68
2021/03/26 10:23:59;;;;;;;64.05;38.75;;;;;;;18.89;51.85;100655.67;2968683;80;21975;-68
2021/03/26 10:28:38;;;;;;;55.67;32.70;;;;;;;18.91;51.29;100657.69;2968662;80;21093;-69
2021/03/26 10:32:43;;;;;;;59.50;35.50;;;;;;;18.90;51.81;100649.27;2968605;80;21531;-68
2021/03/26 10:36:58;;;;;;;53.40;34.08;;;;;;;18.96;53.50;100646.36;2969368;80;21140;-68
2021/03/26 10:41:07;;;;;;;55.05;33.13;;;;;;;19.06;52.87;100639.46;2968066;80;21165;-68
2021/03/26 10:45:39;;;;;;;46.77;30.80;;;;;;;18.98;51.63;100643.87;2967816;80;21149;-68
2021/03/26 10:49:53;;;;;;;49.27;32.30;;;;;;;18.98;52.40;100642.53;2968471;79;21149;-68
2021/03/26 10:54:05;;;;;;;49.10;34.33;;;;;;;19.05;52.26;100633.73;2968692;80;21129;-67
2021/03/26 10:58:36;;;;;;;53.42;33.50;;;;;;;19.08;52.25;100638.29;2968461;80;21164;-69
2021/03/26 11:07:59;;;;;;;51.33;32.85;;;;;;;19.32;51.52;100623.03;2968622;80;21112;-68
2021/03/26 11:12:27;;;;;;;54.45;32.00;;;;;;;19.41;51.91;100610.34;2951657;80;21606;-68
2021/03/26 11:16:47;;;;;;;40.38;28.00;;;;;;;19.45;52.33;100609.49;2969247;80;21089;-68
2021/03/26 11:21:10;;;;;;;52.08;32.03;;;;;;;19.59;52.36;100611.94;2969535;80;21117;-69
2021/03/26 11:29:52;;;;;;;48.95;30.20;;;;;;;19.86;50.85;100596.27;2968895;79;21109;-68
2021/03/26 11:34:51;;;;;;;50.15;30.02;;;;;;;19.86;51.74;100590.88;2962004;80;21549;-68
2021/03/26 11:39:02;;;;;;;51.55;27.13;;;;;;;19.82;49.31;100580.94;2969310;80;21121;-68
2021/03/26 11:43:44;;;;;;;42.73;27.20;;;;;;;19.93;51.15;100579.18;2969265;80;21096;-68
2021/03/26 11:48:10;;;;;;;45.17;26.90;;;;;;;19.93;49.78;100575.66;2968959;80;21101;-67
2021/03/26 11:52:16;;;;;;;42.17;28.32;;;;;;;19.90;50.09;100575.99;2969051;80;21104;-69
2021/03/26 12:01:03;;;;;;;42.08;25.72;;;;;;;19.96;49.16;100569.89;2968853;80;21105;-68
2021/03/26 12:05:17;;;;;;;37.15;22.40;;;;;;;19.94;49.95;100566.02;2968472;78;21121;-68
2021/03/26 12:10:12;;;;;;;34.88;25.55;;;;;;;20.07;49.14;100560.52;2964584;80;21105;-68
2021/03/26 12:14:24;;;;;;;35.92;22.67;;;;;;;20.10;48.88;100554.25;2967784;80;21176;-68
2021/03/26 12:18:38;;;;;;;34.63;22.90;;;;;;;20.10;48.01;100544.80;2967690;80;21120;-68
2021/03/26 12:23:20;;;;;;;40.15;24.57;;;;;;;20.19;46.58;100544.72;2967404;79;21113;-68
2021/03/26 12:27:32;;;;;;;30.12;20.45;;;;;;;20.34;46.78;100542.03;2967938;80;21673;-65
2021/03/26 12:31:54;;;;;;;40.43;21.50;;;;;;;20.46;46.77;100534.34;2968491;80;21156;-68
2021/03/26 12:36:05;;;;;;;41.42;23.62;;;;;;;20.60;47.50;100528.62;2968262;80;21598;-66
2021/03/26 12:40:56;;;;;;;33.75;20.88;;;;;;;20.67;47.51;100526.34;2941060;79;21129;-66
2021/03/26 12:45:24;;;;;;;37.28;21.93;;;;;;;20.71;47.21;100521.91;2991531;79;21122;-66
2021/03/26 12:50:01;;;;;;;33.38;19.02;;;;;;;20.66;48.54;100521.11;2976409;78;21589;-67
2021/03/26 12:54:42;;;;;;;32.95;20.15;;;;;;;20.70;47.21;100517.00;2961355;78;21198;-67
2021/03/26 12:59:22;;;;;;;26.77;19.00;;;;;;;20.68;47.21;100512.30;2960438;80;21575;-67
2021/03/26 13:03:43;;;;;;;33.02;18.55;;;;;;;20.51;45.68;100511.66;2961916;78;21118;-67
2021/03/26 13:08:07;;;;;;;38.55;23.73;;;;;;;20.34;45.25;100508.27;2962836;80;21129;-67
2021/03/26 13:12:13;;;;;;;33.55;22.17;;;;;;;20.34;47.06;100498.31;2963017;80;21145;-66
2021/03/26 13:16:56;;;;;;;38.60;22.22;;;;;;;20.29;46.56;100500.75;2962978;80;21555;-66
2021/03/26 13:21:23;;;;;;;40.10;22.00;;;;;;;20.43;47.79;100497.72;2970934;79;21117;-66
2021/03/26 13:25:45;;;;;;;35.48;22.77;;;;;;;20.47;46.26;100494.14;2963296;79;21108;-66
2021/03/26 13:30:14;;;;;;;35.83;20.55;;;;;;;20.32;46.16;100496.32;2969838;79;21149;-66
2021/03/26 13:34:27;;;;;;;33.73;21.60;;;;;;;20.16;46.74;100498.69;2969067;79;21121;-66
2021/03/26 13:38:41;;;;;;;35.98;23.75;;;;;;;19.96;47.19;100495.66;2954702;80;21145;-66
2021/03/26 13:43:02;;;;;;;55.60;38.23;;;;;;;19.85;48.33;100496.90;2987731;79;21539;-66
2021/03/26 13:47:39;;;;;;;31.95;21.87;;;;;;;19.77;48.83;100492.41;2976365;79;21113;-66
2021/03/26 13:51:47;;;;;;;45.33;26.95;;;;;;;19.76;47.95;100488.03;2977340;80;21148;-66
2021/03/26 13:55:55;;;;;;;35.25;23.95;;;;;;;19.73;47.26;100493.80;2975908;79;21113;-66
2021/03/26 14:00:10;;;;;;;47.93;25.12;;;;;;;19.69;46.85;100487.09;2947995;80;21125;-66
2021/03/26 14:04:31;;;;;;;40.40;21.97;;;;;;;19.68;48.70;100489.46;2964427;78;21444;-66
2021/03/26 14:08:54;;;;;;;46.92;22.85;;;;;;;19.58;47.78;100490.20;2956228;80;21177;-65
2021/03/26 14:13:02;;;;;;;41.50;26.82;;;;;;;19.45;47.80;100484.88;2969985;79;21629;-66
2021/03/26 14:17:26;;;;;;;37.65;22.60;;;;;;;19.36;48.93;100477.88;2981463;79;21519;-66
2021/03/26 14:22:09;;;;;;;34.03;22.95;;;;;;;19.49;49.59;100480.83;2990407;78;21120;-61
2021/03/26 14:26:27;;;;;;;36.42;23.50;;;;;;;19.67;48.79;100473.77;2932556;79;21121;-63
2021/03/26 14:30:54;;;;;;;34.80;23.07;;;;;;;19.95;48.10;100461.58;2994188;79;21112;-62
2021/03/26 14:35:03;;;;;;;42.33;22.90;;;;;;;20.24;47.91;100451.33;2965626;79;21114;-62
2021/03/26 14:39:28;;;;;;;34.43;22.05;;;;;;;20.49;46.68;100456.97;2975214;80;21144;-63
2021/03/26 14:43:36;;;;;;;39.45;24.65;;;;;;;20.56;45.87;100453.83;2931282;80;21626;-65
2021/03/26 14:47:40;;;;;;;36.20;20.43;;;;;;;20.49;45.92;100448.86;2971885;79;21176;-65
2021/03/26 14:51:48;;;;;;;39.15;30.72;;;;;;;20.29;46.27;100448.58;2965474;80;21152;-63
2021/03/26 14:56:17;;;;;;;38.58;22.77;;;;;;;20.30;46.45;100451.10;2966746;80;21129;-63
2021/03/26 15:00:40;;;;;;;39.67;22.17;;;;;;;20.44;45.78;100445.86;2968364;80;21145;-64
2021/03/26 15:04:52;;;;;;;35.70;21.93;;;;;;;20.54;44.76;100446.43;2957959;79;21186;-63
2021/03/26 15:09:03;;;;;;;56.50;35.15;;;;;;;20.56;44.50;100448.42;2953529;80;21173;-63
2021/03/26 15:13:26;;;;;;;52.03;37.67;;;;;;;20.50;44.63;100435.15;2954061;80;21158;-64
2021/03/26 15:17:38;;;;;;;49.05;29.30;;;;;;;20.57;44.19;100438.47;2954412;80;21146;-62
2021/03/26 15:21:59;;;;;;;70.37;46.05;;;;;;;20.59;43.87;100433.71;2954748;80;21169;-64
2021/03/26 15:26:08;;;;;;;54.30;31.23;;;;;;;20.59;43.46;100429.12;2954294;80;21185;-63
2021/03/26 15:30:26;;;;;;;48.17;36.53;;;;;;;20.43;43.14;100425.27;2968138;80;21133;-61
2021/03/26 15:34:53;;;;;;;36.05;23.83;;;;;;;20.28;44.15;100425.29;2958476;80;21163;-62
2021/03/26 15:39:05;;;;;;;40.95;28.57;;;;;;;20.03;45.35;100422.87;2964550;79;21141;-63
2021/03/26 15:43:36;;;;;;;170.45;110.30;;;;;;;19.82;46.79;100417.12;2966164;79;21081;-63
2021/03/26 15:47:56;;;;;;;68.80;42.20;;;;;;;19.62;47.42;100415.96;2965573;80;21160;-64
2021/03/26 15:52:26;;;;;;;53.20;36.55;;;;;;;19.43;48.40;100414.09;2962714;80;21114;-63
2021/03/26 15:56:43;;;;;;;52.10;35.23;;;;;;;19.40;49.54;100414.46;2962698;80;21122;-64
2021/03/26 16:01:14;;;;;;;47.95;30.40;;;;;;;19.41;50.27;100408.05;2964362;80;21085;-62
2021/03/26 16:05:46;;;;;;;41.77;25.17;;;;;;;19.32;50.13;100411.84;2929655;79;21123;-62
2021/03/26 16:10:31;;;;;;;57.30;41.42;;;;;;;19.12;49.15;100409.10;2922005;81;21115;-63
2021/03/26 16:14:43;;;;;;;47.10;32.33;;;;;;;19.03;49.84;100414.72;2883527;79;21141;-61
2021/03/26 16:19:07;;;;;;;79.90;53.55;;;;;;;19.06;49.67;100414.36;2953478;79;21570;-63
2021/03/26 16:23:25;;;;;;;60.25;38.70;;;;;;;18.94;50.38;100409.37;2960639;80;21551;-63
2021/03/26 16:28:18;;;;;;;50.03;32.55;;;;;;;18.84;51.45;100408.25;2999499;77;22964;-62
2021/03/26 16:32:35;;;;;;;42.05;29.90;;;;;;;18.62;51.56;100407.70;2951038;80;21545;-62
2021/03/26 16:37:35;;;;;;;57.25;40.88;;;;;;;18.34;51.30;100408.98;2915212;81;21118;-63
2021/03/26 16:42:06;;;;;;;56.53;38.17;;;;;;;18.12;51.97;100403.83;2901598;82;21161;-63
2021/03/26 16:46:31;;;;;;;138.22;93.42;;;;;;;17.88;53.55;100396.62;2902077;82;21078;-63
2021/03/26 16:51:08;;;;;;;66.60;42.58;;;;;;;17.71;54.53;100402.05;2900480;82;21118;-62
2021/03/26 16:55:34;;;;;;;56.95;36.38;;;;;;;17.52;55.96;100390.63;2848982;82;21090;-63
2021/03/26 17:00:36;;;;;;;48.92;35.48;;;;;;;17.33;57.22;100395.01;2901860;82;21189;-63
2021/03/26 17:05:22;;;;;;;56.02;41.23;;;;;;;17.11;58.68;100395.48;2915429;80;21193;-64
2021/03/26 17:10:17;;;;;;;52.23;31.82;;;;;;;16.89;59.35;100395.56;3039945;77;23251;-65
2021/03/26 17:14:45;;;;;;;66.33;43.10;;;;;;;16.69;59.65;100400.40;3000135;78;21156;-64
2021/03/26 17:19:27;;;;;;;48.05;31.65;;;;;;;16.57;60.12;100398.52;2988017;79;21149;-66
2021/03/26 17:23:58;;;;;;;49.83;32.13;;;;;;;16.48;60.50;100393.63;2976893;79;21165;-64
2021/03/26 17:28:32;;;;;;;59.42;34.15;;;;;;;16.44;60.96;100399.47;2954306;80;21110;-62
2021/03/26 17:33:03;;;;;;;51.08;31.60;;;;;;;16.31;61.68;100395.41;2975850;77;21114;-64
2021/03/26 17:37:11;;;;;;;47.62;33.78;;;;;;;16.16;62.07;100393.80;2976253;79;21144;-63
2021/03/26 17:42:10;;;;;;;51.23;36.75;;;;;;;15.99;62.20;100399.59;2979062;79;21102;-64
2021/03/26 17:46:52;;;;;;;52.85;34.03;;;;;;;15.82;62.68;100399.94;2978761;79;21544;-63
2021/03/26 17:51:35;;;;;;;115.42;73.52;;;;;;;15.56;63.45;100400.28;2971346;79;21566;-63
2021/03/26 17:56:06;;;;;;;113.12;71.15;;;;;;;15.42;63.32;100403.51;2982834;79;21130;-64
2021/03/26 18:00:40;;;;;;;104.58;69.20;;;;;;;15.30;63.97;100402.91;3006903;79;21591;-62
2021/03/26 18:04:53;;;;;;;109.03;73.20;;;;;;;15.18;63.82;100397.42;2939752;79;21165;-63
2021/03/26 18:09:21;;;;;;;106.65;75.40;;;;;;;15.02;64.45;100405.64;2924177;80;21205;-62
2021/03/26 18:14:19;;;;;;;123.42;76.80;;;;;;;14.82;65.08;100408.97;2858262;82;21131;-62
2021/03/26 18:18:53;;;;;;;191.00;108.03;;;;;;;14.66;65.43;100406.92;2831937;82;21216;-63
2021/03/26 18:23:13;;;;;;;130.85;72.25;;;;;;;14.45;65.67;100403.14;2855613;82;21133;-62
2021/03/26 18:27:41;;;;;;;79.62;54.00;;;;;;;14.19;65.83;100411.86;2822554;82;21146;-62
2021/03/26 18:32:29;;;;;;;67.05;50.25;;;;;;;13.98;66.04;100412.91;2887078;82;21132;-62
2021/03/26 18:36:58;;;;;;;113.22;69.53;;;;;;;13.75;67.33;100413.72;2842806;82;21157;-62
2021/03/26 18:41:29;;;;;;;162.00;106.60;;;;;;;13.47;68.83;100411.78;2790438;83;21181;-62
2021/03/26 18:46:01;;;;;;;107.72;63.40;;;;;;;13.28;69.35;100411.28;2828357;83;21181;-62
2021/03/26 18:50:42;;;;;;;98.92;64.67;;;;;;;13.14;70.12;100408.51;2842944;83;21215;-62
2021/03/26 19:00:38;;;;;;;99.20;60.03;;;;;;;12.87;70.53;100416.70;2852542;83;21152;-63
2021/03/26 19:05:01;;;;;;;90.42;62.38;;;;;;;12.78;70.74;100415.70;2869989;82;21185;-62
2021/03/26 19:09:15;;;;;;;92.67;59.20;;;;;;;12.73;70.88;100413.95;2907765;81;21161;-62
2021/03/26 19:13:43;;;;;;;84.80;57.93;;;;;;;12.69;71.24;100420.04;2862619;81;21373;-61
2021/03/26 19:18:03;;;;;;;98.97;60.83;;;;;;;12.61;71.80;100417.69;2844517;83;21616;-63
2021/03/26 19:22:48;;;;;;;159.25;106.70;;;;;;;12.49;72.07;100412.95;2793562;83;21654;-63
2021/03/26 19:27:42;;;;;;;153.20;103.32;;;;;;;12.40;72.35;100408.80;2831355;80;65665;-63
2021/03/26 19:32:33;;;;;;;121.35;80.67;;;;;;;12.30;72.56;100409.23;2747862;83;21097;-62
2021/03/26 19:37:18;;;;;;;118.45;82.20;;;;;;;12.17;72.98;100404.60;2701783;86;21192;-63
2021/03/26 19:41:29;;;;;;;144.07;92.00;;;;;;;12.12;73.01;100405.85;2718279;86;21210;-62
2021/03/26 19:45:44;;;;;;;114.67;70.67;;;;;;;12.04;72.93;100410.16;2724143;86;21175;-62
2021/03/26 19:50:08;;;;;;;90.03;60.03;;;;;;;11.91;73.50;100413.01;2754450;86;21167;-62
2021/03/26 19:55:02;;;;;;;168.50;99.07;;;;;;;11.73;74.63;100413.59;2754755;86;21216;-62
2021/03/26 19:59:44;;;;;;;134.87;86.05;;;;;;;11.57;74.89;100408.73;2754513;86;21187;-62
2021/03/26 20:04:01;;;;;;;102.02;62.95;;;;;;;11.59;74.17;100409.44;2754452;86;21640;-61
2021/03/26 20:08:27;;;;;;;106.12;72.47;;;;;;;11.56;73.64;100398.55;2753330;84;21976;-62
2021/03/26 20:12:44;;;;;;;120.85;81.70;;;;;;;11.55;73.58;100400.02;2743477;86;21115;-62
2021/03/26 20:17:19;;;;;;;111.60;76.42;;;;;;;11.49;73.37;100398.72;2740173;86;21246;-62
2021/03/26 20:21:47;;;;;;;94.07;60.45;;;;;;;11.39;73.43;100397.31;2754352;86;21640;-63